Time;durP1;ratioP1;P1;durP2;ratioP2;P2;SDS_P1;SDS_P2;PMS_P1;PMS_P2;Temp;Humidity;BMP_temperature;BMP_pressure;BME280_temperature;BME280_humidity;BME280_pressure;Samples;Min_cycle;Max_cycle;Signal;HPM_P1;HPM_P2
2022/04/24 00:02:32;;;;;;;13.80;10.17;;;2.20;99.90;;;;;;8229604;28;20319;-68
2022/04/24 00:06:34;;;;;;;15.17;10.03;;;2.10;99.90;;;;;;8229177;28;20209;-70
2022/04/24 00:10:38;;;;;;;12.83;9.13;;;2.10;99.90;;;;;;8217142;28;20208;-70
2022/04/24 00:14:38;;;;;;;12.87;10.77;;;2.00;99.90;;;;;;8235810;28;20185;-70
2022/04/24 00:18:39;;;;;;;12.20;9.87;;;2.00;99.90;;;;;;8224532;28;20192;-69
2022/04/24 00:22:40;;;;;;;13.17;9.70;;;2.00;99.90;;;;;;8238183;28;20215;-69
2022/04/24 00:26:41;;;;;;;14.00;9.77;;;1.90;99.90;;;;;;8237669;28;20332;-72
2022/04/24 00:30:42;;;;;;;12.47;9.37;;;1.90;99.90;;;;;;8237437;28;20216;-69
2022/04/24 00:34:42;;;;;;;14.10;9.40;;;1.80;99.90;;;;;;8233154;28;20206;-70
2022/04/24 00:38:44;;;;;;;11.93;9.17;;;1.70;99.90;;;;;;8214460;28;20326;-70
2022/04/24 00:42:44;;;;;;;14.47;8.53;;;1.60;99.90;;;;;;8232415;28;20196;-70
2022/04/24 00:47:10;;;;;;;15.23;10.80;;;1.60;99.90;;;;;;8211412;28;20560;-70
2022/04/24 00:51:12;;;;;;;16.53;11.40;;;1.60;99.90;;;;;;8228746;28;20263;-70
2022/04/24 00:55:13;;;;;;;16.37;11.07;;;1.60;99.90;;;;;;8221815;28;20192;-70
2022/04/24 00:59:15;;;;;;;19.40;11.00;;;1.50;99.90;;;;;;8217710;28;20196;-70
2022/04/24 01:03:16;;;;;;;21.30;12.30;;;1.50;99.90;;;;;;8213927;28;20880;-69
2022/04/24 01:07:16;;;;;;;23.60;14.03;;;1.50;99.90;;;;;;8216052;28;20192;-70
2022/04/24 01:11:17;;;;;;;23.50;14.80;;;1.50;99.90;;;;;;8233508;28;20177;-70
2022/04/24 01:15:18;;;;;;;17.10;10.63;;;1.40;99.90;;;;;;8217354;28;20193;-70
2022/04/24 01:19:19;;;;;;;13.63;10.27;;;1.30;99.90;;;;;;8216803;28;20188;-69
2022/04/24 01:23:20;;;;;;;13.50;8.73;;;1.20;99.90;;;;;;8217264;28;20238;-69
2022/04/24 01:27:21;;;;;;;11.77;9.20;;;1.10;99.90;;;;;;8233372;28;20243;-71
2022/04/24 01:31:22;;;;;;;12.97;9.63;;;1.10;99.90;;;;;;8215744;28;20200;-71
2022/04/24 01:35:23;;;;;;;16.83;9.83;;;1.00;99.90;;;;;;8218760;28;20192;-69
2022/04/24 01:39:24;;;;;;;18.50;10.67;;;1.00;99.90;;;;;;8229130;28;20204;-72
2022/04/24 01:43:25;;;;;;;15.90;11.50;;;1.00;99.90;;;;;;8217809;28;20211;-68
2022/04/24 01:47:26;;;;;;;16.57;12.33;;;1.00;99.90;;;;;;8215400;28;20208;-70
2022/04/24 01:51:26;;;;;;;16.27;11.63;;;0.90;99.90;;;;;;8233095;28;20193;-70
2022/04/24 01:55:27;;;;;;;16.23;11.53;;;0.90;99.90;;;;;;8214294;28;20196;-69
2022/04/24 01:59:28;;;;;;;16.97;11.40;;;0.90;99.90;;;;;;8229393;28;20192;-69
2022/04/24 02:03:29;;;;;;;15.57;11.47;;;0.90;99.90;;;;;;8217138;28;20208;-69
2022/04/24 02:07:30;;;;;;;18.60;12.67;;;0.90;99.90;;;;;;8231123;28;20224;-69
2022/04/24 02:11:31;;;;;;;17.27;12.43;;;0.90;99.90;;;;;;8217697;28;20472;-69
2022/04/24 02:15:33;;;;;;;17.37;12.60;;;0.90;99.90;;;;;;8232489;28;20247;-70
2022/04/24 02:19:33;;;;;;;14.27;11.37;;;0.80;99.90;;;;;;8234188;28;20193;-69
2022/04/24 02:23:34;;;;;;;15.63;10.70;;;0.70;99.90;;;;;;8233670;28;20189;-70
2022/04/24 02:27:35;;;;;;;15.23;10.53;;;0.60;99.90;;;;;;8230590;28;20270;-69
2022/04/24 02:31:36;;;;;;;15.40;10.80;;;0.60;99.90;;;;;;8230950;28;20223;-69
2022/04/24 02:35:37;;;;;;;17.97;10.83;;;0.50;99.90;;;;;;8227960;28;20236;-70
2022/04/24 02:39:38;;;;;;;15.47;11.57;;;0.50;99.90;;;;;;8230930;28;20286;-69
2022/04/24 02:43:38;;;;;;;17.30;11.53;;;0.50;99.90;;;;;;8213834;28;20193;-69
2022/04/24 02:47:39;;;;;;;19.73;12.40;;;0.60;99.90;;;;;;8233026;28;20243;-69
2022/04/24 02:51:40;;;;;;;16.03;10.90;;;0.50;99.90;;;;;;8235903;28;20194;-69
2022/04/24 02:55:40;;;;;;;16.13;10.67;;;0.50;99.90;;;;;;8233933;28;20271;-69
2022/04/24 02:59:45;;;;;;;14.27;10.07;;;0.40;99.90;;;;;;8218191;28;20200;-69
2022/04/24 03:03:46;;;;;;;17.37;12.23;;;0.30;99.90;;;;;;8216584;28;20200;-69
2022/04/24 03:07:47;;;;;;;17.30;11.90;;;0.40;99.90;;;;;;8231066;28;20269;-69
2022/04/24 03:11:48;;;;;;;17.53;12.53;;;0.30;99.90;;;;;;8233367;28;20284;-69
2022/04/24 03:15:49;;;;;;;14.33;9.77;;;0.30;99.90;;;;;;8216813;28;20192;-68
2022/04/24 03:19:49;;;;;;;17.83;11.73;;;0.20;99.90;;;;;;8230980;28;20191;-69
2022/04/24 03:23:50;;;;;;;16.07;10.73;;;0.20;99.90;;;;;;8230643;28;20286;-69
2022/04/24 03:27:51;;;;;;;17.57;12.07;;;0.20;99.90;;;;;;8212289;28;20220;-69
2022/04/24 03:31:53;;;;;;;17.77;11.93;;;0.20;99.90;;;;;;8231239;28;20195;-69
2022/04/24 03:35:53;;;;;;;17.83;11.90;;;0.20;99.90;;;;;;8214861;28;20189;-69
2022/04/24 03:39:54;;;;;;;17.17;12.13;;;0.20;99.90;;;;;;8231655;28;20216;-69
2022/04/24 03:43:55;;;;;;;18.10;11.73;;;0.10;99.90;;;;;;8222403;28;20553;-69
2022/04/24 03:47:56;;;;;;;19.03;11.80;;;0.10;99.90;;;;;;8225546;28;20220;-68
2022/04/24 03:51:57;;;;;;;18.03;11.97;;;0.10;99.90;;;;;;8242053;28;20195;-69
2022/04/24 03:55:58;;;;;;;22.33;15.33;;;0.10;99.90;;;;;;8225234;28;20188;-69
2022/04/24 03:59:59;;;;;;;21.90;13.77;;;0.30;99.90;;;;;;8224875;28;20192;-68
2022/04/24 04:04:00;;;;;;;21.87;14.00;;;0.40;99.90;;;;;;8240722;28;20199;-69
2022/04/24 04:08:01;;;;;;;20.27;13.17;;;0.50;99.90;;;;;;8240564;28;20294;-69
2022/04/24 04:12:02;;;;;;;22.27;16.23;;;0.70;99.90;;;;;;8241769;28;20188;-69
2022/04/24 04:16:03;;;;;;;20.97;14.67;;;1.00;99.90;;;;;;8237779;28;20199;-69
2022/04/24 04:20:09;;;;;;;23.17;15.77;;;1.50;99.90;;;;;;8241252;28;20196;-69
2022/04/24 04:24:10;;;;;;;30.70;21.87;;;2.00;99.90;;;;;;8241536;28;20195;-69
2022/04/24 04:28:10;;;;;;;32.93;22.07;;;2.60;99.90;;;;;;8226676;28;20250;-69
2022/04/24 04:32:11;;;;;;;29.07;18.97;;;3.10;99.90;;;;;;8224148;28;20176;-69
2022/04/24 04:36:12;;;;;;;19.83;15.13;;;3.50;99.90;;;;;;8242328;28;20586;-70
2022/04/24 04:40:13;;;;;;;20.10;16.00;;;3.90;99.90;;;;;;8226496;28;20208;-69
2022/04/24 04:44:14;;;;;;;22.67;16.83;;;4.30;99.90;;;;;;8240199;28;20202;-70
2022/04/24 04:48:15;;;;;;;19.47;14.77;;;4.70;99.90;;;;;;8228676;28;20206;-67
2022/04/24 04:52:15;;;;;;;18.93;15.10;;;5.00;99.90;;;;;;8241305;28;20242;-68
2022/04/24 04:56:17;;;;;;;19.30;14.90;;;5.30;99.90;;;;;;8222083;28;20220;-69
2022/04/24 05:00:18;;;;;;;22.70;17.10;;;5.20;99.90;;;;;;8217374;28;20189;-69
2022/04/24 05:04:19;;;;;;;32.17;18.33;;;5.20;99.90;;;;;;8231902;28;20192;-70
2022/04/24 05:08:19;;;;;;;33.37;19.97;;;5.20;99.90;;;;;;8235703;28;20263;-69
2022/04/24 05:12:26;;;;;;;21.23;15.70;;;5.40;99.90;;;;;;8233585;28;20279;-69
2022/04/24 05:16:26;;;;;;;20.17;14.77;;;5.70;99.90;;;;;;8232854;28;20480;-70
2022/04/24 05:20:27;;;;;;;21.70;14.87;;;6.00;1.00;;;;;;8232497;28;20188;-69
2022/04/24 05:24:28;;;;;;;19.33;13.97;;;6.30;1.00;;;;;;8214997;28;20212;-70
2022/04/24 05:28:29;;;;;;;19.27;13.90;;;6.60;1.00;;;;;;8230553;28;20220;-69
2022/04/24 05:32:41;;;;;;;19.17;13.87;;;6.90;18.00;;;;;;8234025;28;20192;-68
2022/04/24 05:36:42;;;;;;;20.37;15.13;;;7.20;99.90;;;;;;8220380;28;20239;-69
2022/04/24 05:40:43;;;;;;;20.37;14.27;;;7.40;1.00;;;;;;8219070;28;20297;-68
2022/04/24 05:44:44;;;;;;;16.90;13.23;;;7.60;99.90;;;;;;8217648;28;20216;-71
2022/04/24 05:48:44;;;;;;;14.77;12.13;;;7.90;20.90;;;;;;8234963;28;20307;-68
2022/04/24 05:52:45;;;;;;;16.40;11.73;;;8.20;1.00;;;;;;8224482;28;20254;-69
2022/04/24 05:56:46;;;;;;;13.87;11.30;;;8.40;99.90;;;;;;8230050;28;20208;-67
2022/04/24 06:00:47;;;;;;;14.53;10.73;;;8.60;99.90;;;;;;8229647;28;20197;-70
2022/04/24 06:04:48;;;;;;;20.27;11.57;;;8.70;1.00;;;;;;8208834;28;21151;-69
2022/04/24 06:08:48;;;;;;;18.77;12.07;;;8.90;99.90;;;;;;8218784;28;20427;-71
2022/04/24 06:12:57;;;;;;;16.67;11.43;;;9.10;99.90;;;;;;8219006;28;20186;-71
2022/04/24 06:17:00;;;;;;;12.97;10.50;;;9.30;99.90;;;;;;8231299;28;20264;-70
2022/04/24 06:21:00;;;;;;;13.40;10.13;;;9.60;1.00;;;;;;8217458;28;20212;-67
2022/04/24 06:25:01;;;;;;;14.00;10.50;;;9.80;1.00;;;;;;8229836;28;20548;-69
2022/04/24 06:29:02;;;;;;;13.63;10.67;;;10.00;99.90;;;;;;8214957;28;20209;-69
2022/04/24 06:33:07;;;;;;;12.93;9.87;;;10.30;99.90;;;;;;8229324;28;20191;-69
2022/04/24 06:37:07;;;;;;;13.77;10.53;;;10.60;99.90;;;;;;8232471;28;20228;-69
2022/04/24 06:41:08;;;;;;;14.73;8.77;;;10.90;99.90;;;;;;8230562;28;20310;-69
2022/04/24 06:45:09;;;;;;;11.27;8.47;;;11.30;82.60;;;;;;8212676;28;20279;-68
2022/04/24 06:49:11;;;;;;;12.00;8.73;;;11.60;1.00;;;;;;8228091;28;20219;-68
2022/04/24 06:53:13;;;;;;;14.47;8.20;;;11.80;99.90;;;;;;8231630;28;20433;-69
2022/04/24 06:57:14;;;;;;;14.53;7.60;;;11.90;99.90;;;;;;8232112;28;20188;-68
2022/04/24 07:01:15;;;;;;;9.90;6.50;;;12.10;99.90;;;;;;8219176;28;20301;-67
2022/04/24 07:05:19;;;;;;;9.33;5.67;;;12.20;99.90;;;;;;8232312;28;20246;-68
2022/04/24 07:09:20;;;;;;;7.53;4.97;;;12.50;1.00;;;;;;8216165;28;20212;-66
2022/04/24 07:13:21;;;;;;;7.97;4.90;;;12.80;1.00;;;;;;8231566;28;20180;-66
2022/04/24 07:17:22;;;;;;;9.30;5.77;;;13.00;1.00;;;;;;8232177;28;20189;-68
2022/04/24 07:21:23;;;;;;;7.47;5.50;;;13.10;1.00;;;;;;8229083;28;20279;-66
2022/04/24 07:25:28;;;;;;;7.27;5.23;;;13.20;1.00;;;;;;8227617;28;20188;-66
2022/04/24 07:29:28;;;;;;;6.33;4.93;;;13.30;1.00;;;;;;8213518;28;20217;-68
2022/04/24 07:33:29;;;;;;;7.10;5.23;;;13.40;1.00;;;;;;8213804;28;20211;-69
2022/04/24 07:37:32;;;;;;;6.60;4.60;;;13.50;1.00;;;;;;8228415;28;20180;-68
2022/04/24 07:41:33;;;;;;;5.87;4.37;;;13.70;1.00;;;;;;8227127;28;20197;-67
2022/04/24 07:45:41;;;;;;;5.37;3.93;;;13.80;1.00;;;;;;8210637;28;20184;-66
2022/04/24 07:49:42;;;;;;;7.40;4.53;;;13.90;99.90;;;;;;8216030;28;20234;-68
2022/04/24 07:53:44;;;;;;;6.13;4.50;;;14.00;99.90;;;;;;8227131;28;20192;-69
2022/04/24 07:57:46;;;;;;;7.67;4.77;;;14.10;99.90;;;;;;8228185;28;20208;-71
2022/04/24 08:01:51;;;;;;;5.17;4.67;;;14.30;99.90;;;;;;8209922;28;20186;-67
2022/04/24 08:05:52;;;;;;;9.00;4.67;;;14.40;99.90;;;;;;8210041;28;20199;-66
2022/04/24 08:09:52;;;;;;;5.87;4.80;;;14.50;99.90;;;;;;8205912;28;20290;-66
2022/04/24 08:13:53;;;;;;;6.87;4.50;;;14.60;99.90;;;;;;8231993;28;20196;-69
2022/04/24 08:17:54;;;;;;;5.93;4.33;;;14.70;99.90;;;;;;8229381;28;20192;-70
2022/04/24 08:21:55;;;;;;;8.17;3.97;;;14.80;99.90;;;;;;8213818;28;20260;-67
2022/04/24 08:25:56;;;;;;;5.33;4.47;;;14.90;99.90;;;;;;8205127;28;20552;-65
2022/04/24 08:29:56;;;;;;;5.70;5.00;;;15.10;99.90;;;;;;8211225;28;20227;-69
2022/04/24 08:33:57;;;;;;;6.87;4.60;;;15.20;99.90;;;;;;8233202;28;20188;-68
2022/04/24 08:37:59;;;;;;;5.97;3.83;;;15.20;99.90;;;;;;8233923;28;20192;-67
2022/04/24 08:41:59;;;;;;;4.93;4.10;;;15.20;99.90;;;;;;8233597;28;20262;-67
2022/04/24 08:46:02;;;;;;;5.97;4.27;;;15.20;99.90;;;;;;8228591;28;20200;-67
2022/04/24 08:50:04;;;;;;;6.57;4.27;;;15.40;99.90;;;;;;8221417;28;20220;-69
2022/04/24 08:54:05;;;;;;;6.00;4.80;;;15.60;99.90;;;;;;8220430;28;20180;-69
2022/04/24 08:58:06;;;;;;;6.17;3.67;;;16.10;99.90;;;;;;8219447;28;20239;-68
2022/04/24 09:02:09;;;;;;;5.30;4.07;;;16.60;99.90;;;;;;8219051;28;20300;-69
2022/04/24 09:06:22;;;;;;;5.60;3.77;;;17.00;99.90;;;;;;8219371;28;20208;-69
2022/04/24 09:10:23;;;;;;;4.83;3.70;;;17.20;99.90;;;;;;8218684;28;20216;-67
2022/04/24 09:14:30;;;;;;;5.83;4.87;;;17.20;99.90;;;;;;8218068;28;20192;-66
2022/04/24 09:18:38;;;;;;;6.23;4.83;;;17.00;99.90;;;;;;8218894;28;20188;-67
2022/04/24 09:22:38;;;;;;;4.33;3.87;;;17.00;99.90;;;;;;8207299;28;20383;-67
2022/04/24 09:26:50;;;;;;;5.27;3.97;;;17.20;99.90;;;;;;8214902;28;20271;-69
2022/04/24 09:30:51;;;;;;;4.80;3.80;;;17.30;99.90;;;;;;8229294;28;20295;-67
2022/04/24 09:34:52;;;;;;;7.80;4.67;;;17.20;98.30;;;;;;8233517;28;20191;-69
2022/04/24 09:38:53;;;;;;;5.80;4.27;;;16.90;99.90;;;;;;8230508;28;20664;-69
2022/04/24 09:42:59;;;;;;;7.07;4.50;;;16.70;99.90;;;;;;8232381;28;20302;-69
2022/04/24 09:47:00;;;;;;;9.10;4.70;;;16.50;99.90;;;;;;8229380;28;20506;-70
2022/04/24 09:51:01;;;;;;;6.57;3.93;;;16.20;99.90;;;;;;8218134;28;20224;-67
2022/04/24 09:55:02;;;;;;;7.63;5.87;;;16.10;99.90;;;;;;8218745;28;20583;-68
2022/04/24 09:59:08;;;;;;;7.60;6.80;;;15.80;99.90;;;;;;8230720;28;20208;-70
2022/04/24 10:03:12;;;;;;;6.00;3.50;;;15.50;99.90;;;;;;8218559;28;20255;-68
2022/04/24 10:07:19;;;;;;;4.33;3.33;;;15.50;99.90;;;;;;8239254;28;20185;-68
2022/04/24 10:11:20;;;;;;;5.47;3.00;;;15.60;99.90;;;;;;8232305;28;20216;-69
2022/04/24 10:15:24;;;;;;;6.60;4.40;;;15.70;99.90;;;;;;8230853;28;20189;-72
2022/04/24 10:19:55;;;;;;;11.13;6.30;;;15.80;99.90;;;;;;8229749;28;20188;-65
2022/04/24 10:24:10;;;;;;;15.23;10.23;;;16.00;99.90;;;;;;8216099;28;20188;-67
2022/04/24 10:28:16;;;;;;;9.87;6.23;;;16.00;99.90;;;;;;8215761;28;20208;-70
2022/04/24 10:32:30;;;;;;;10.33;6.80;;;15.90;99.90;;;;;;8219536;28;20267;-70
2022/04/24 10:36:31;;;;;;;8.87;5.53;;;15.70;99.90;;;;;;8216303;28;20185;-69
2022/04/24 10:40:32;;;;;;;6.43;3.23;;;15.70;99.90;;;;;;8232966;28;20205;-67
2022/04/24 10:44:33;;;;;;;7.47;4.27;;;15.60;99.90;;;;;;8217826;28;20202;-70
2022/04/24 10:48:34;;;;;;;19.20;10.00;;;15.50;99.90;;;;;;8236058;28;20220;-68
2022/04/24 10:52:43;;;;;;;15.43;10.00;;;15.50;99.90;;;;;;8231095;28;20185;-70
2022/04/24 10:56:49;;;;;;;24.13;10.57;;;15.40;99.90;;;;;;8215955;28;20184;-66
2022/04/24 11:00:50;;;;;;;9.97;5.60;;;15.50;99.90;;;;;;8232130;28;20192;-67
2022/04/24 11:05:02;;;;;;;5.97;3.33;;;15.60;99.90;;;;;;8217711;28;20227;-68
2022/04/24 11:09:11;;;;;;;48.30;17.80;;;15.80;99.90;;;;;;8232159;28;20215;-69
2022/04/24 11:13:16;;;;;;;8.13;4.57;;;15.80;99.90;;;;;;8217198;28;20177;-68
2022/04/24 11:17:17;;;;;;;5.77;4.13;;;15.70;99.90;;;;;;8231320;28;20188;-66
2022/04/24 11:21:21;;;;;;;5.60;3.07;;;15.80;99.90;;;;;;8215707;28;20362;-66
2022/04/24 11:25:24;;;;;;;7.37;3.77;;;15.70;96.70;;;;;;8232577;28;20196;-68
2022/04/24 11:29:25;;;;;;;7.17;4.63;;;15.50;92.80;;;;;;8232779;28;20219;-67
2022/04/24 11:33:26;;;;;;;9.23;4.87;;;15.50;95.90;;;;;;8216329;28;20184;-69
2022/04/24 11:37:26;;;;;;;5.07;3.90;;;15.40;99.90;;;;;;8215667;28;20188;-67
2022/04/24 11:41:29;;;;;;;5.50;3.97;;;15.40;99.90;;;;;;8216354;28;20577;-69
2022/04/24 11:50:14;;;;;;;4.67;3.30;;;15.20;99.90;;;;;;8217208;28;20300;-68
2022/04/24 11:54:16;;;;;;;4.17;2.73;;;15.10;99.90;;;;;;8231002;28;20195;-70
2022/04/24 11:58:17;;;;;;;5.43;4.23;;;15.00;99.90;;;;;;8217328;28;20197;-68
2022/04/24 12:02:18;;;;;;;10.07;6.80;;;14.90;99.90;;;;;;8215065;28;20204;-68
2022/04/24 12:06:19;;;;;;;4.03;3.13;;;14.90;99.90;;;;;;8234808;28;20246;-66
2022/04/24 12:10:23;;;;;;;4.33;3.03;;;14.90;99.90;;;;;;8222232;28;20216;-68
2022/04/24 12:14:26;;;;;;;5.87;3.33;;;14.90;91.30;;;;;;8236512;28;20184;-67
2022/04/24 12:18:28;;;;;;;3.30;3.00;;;14.90;81.00;;;;;;8233138;28;20231;-66
2022/04/24 12:22:35;;;;;;;4.50;3.20;;;14.90;73.00;;;;;;8236463;28;20200;-69
2022/04/24 12:26:52;;;;;;;4.97;3.77;;;14.90;81.50;;;;;;8237260;28;20216;-68
2022/04/24 12:30:54;;;;;;;3.53;2.80;;;15.00;89.20;;;;;;8220631;28;20226;-69
2022/04/24 12:34:55;;;;;;;5.83;3.23;;;15.10;77.10;;;;;;8234959;28;20188;-68
2022/04/24 12:39:04;;;;;;;4.07;3.27;;;15.20;91.80;;;;;;8221765;28;20208;-69
2022/04/24 12:43:05;;;;;;;8.33;5.67;;;15.20;95.60;;;;;;8235001;28;20200;-66
2022/04/24 12:47:06;;;;;;;6.10;3.73;;;15.40;97.20;;;;;;8221968;28;20196;-66
2022/04/24 12:51:07;;;;;;;9.17;4.80;;;15.40;97.70;;;;;;8220600;28;20235;-68
2022/04/24 12:55:08;;;;;;;5.60;3.43;;;15.40;99.90;;;;;;8221279;28;20211;-68
2022/04/24 12:59:10;;;;;;;3.70;3.00;;;15.40;91.10;;;;;;8218681;28;20200;-67
2022/04/24 13:03:15;;;;;;;5.97;3.83;;;15.30;99.90;;;;;;8236579;28;20188;-66
2022/04/24 13:07:15;;;;;;;6.87;5.20;;;15.30;99.90;;;;;;8234515;28;20192;-66
2022/04/24 13:11:16;;;;;;;6.83;5.27;;;15.40;99.90;;;;;;8235621;28;20226;-69
2022/04/24 13:15:17;;;;;;;5.83;4.60;;;15.30;99.90;;;;;;8235426;28;20227;-67
2022/04/24 13:19:19;;;;;;;7.93;5.10;;;15.20;99.90;;;;;;8220511;28;20196;-67
2022/04/24 13:23:20;;;;;;;8.43;6.00;;;15.10;99.90;;;;;;8236952;28;20193;-66
2022/04/24 13:27:21;;;;;;;11.93;7.73;;;14.90;99.90;;;;;;8234233;28;20193;-66
2022/04/24 13:31:22;;;;;;;10.63;6.57;;;14.50;99.90;;;;;;8220951;28;20226;-67
2022/04/24 13:35:23;;;;;;;12.63;7.57;;;14.40;99.90;;;;;;8220387;28;20223;-66
2022/04/24 13:39:25;;;;;;;11.33;6.67;;;14.30;99.90;;;;;;8220616;28;20211;-71
2022/04/24 13:43:27;;;;;;;12.67;7.67;;;14.10;99.90;;;;;;8235172;28;20247;-70
2022/04/24 13:47:28;;;;;;;5.13;3.83;;;14.00;99.90;;;;;;8234996;28;20192;-66
2022/04/24 13:51:28;;;;;;;7.57;5.37;;;13.90;99.90;;;;;;8219366;28;20247;-66
2022/04/24 13:55:29;;;;;;;8.10;6.17;;;13.80;99.90;;;;;;8233263;28;20195;-69
2022/04/24 13:59:30;;;;;;;10.30;6.80;;;13.60;99.90;;;;;;8235846;28;20267;-66
2022/04/24 14:03:31;;;;;;;10.37;8.97;;;13.20;28.80;;;;;;8235248;28;20199;-66
2022/04/24 14:07:32;;;;;;;10.80;9.37;;;12.70;94.50;;;;;;8218498;28;20203;-68
2022/04/24 14:11:32;;;;;;;11.20;9.37;;;12.30;1.00;;;;;;8219456;28;20219;-66
2022/04/24 14:15:34;;;;;;;14.47;12.70;;;12.00;99.90;;;;;;8233552;28;20192;-70
2022/04/24 14:19:35;;;;;;;11.70;10.03;;;11.80;99.90;;;;;;8227122;28;20189;-70
2022/04/24 14:23:36;;;;;;;13.60;12.20;;;11.60;99.90;;;;;;8218001;28;20208;-69
2022/04/24 14:27:37;;;;;;;11.93;10.43;;;11.60;99.90;;;;;;8219184;28;20210;-71
2022/04/24 14:31:37;;;;;;;17.00;12.70;;;11.40;1.00;;;;;;8218513;28;20677;-68
2022/04/24 14:35:42;;;;;;;15.00;10.23;;;11.40;99.90;;;;;;8233987;28;20274;-71
2022/04/24 14:39:43;;;;;;;19.03;14.17;;;11.20;99.90;;;;;;8217285;28;20211;-72
2022/04/24 14:43:43;;;;;;;25.83;18.27;;;11.20;1.00;;;;;;8234753;28;20202;-71
2022/04/24 14:56:23;;;;;;;18.13;14.37;;;11.00;99.90;;;;;;8216209;28;20688;-72
2022/04/24 15:00:26;;;;;;;20.77;17.20;;;10.80;99.90;;;;;;8217419;28;20188;-72
2022/04/24 15:04:27;;;;;;;18.37;14.93;;;10.70;99.90;;;;;;8232041;28;20199;-71
2022/04/24 15:08:28;;;;;;;15.97;13.57;;;10.70;99.90;;;;;;8216495;28;20228;-71
2022/04/24 15:12:29;;;;;;;29.33;25.60;;;10.60;99.90;;;;;;8218657;28;20191;-70
2022/04/24 15:16:30;;;;;;;13.37;11.20;;;10.50;1.00;;;;;;8217132;28;20180;-70
2022/04/24 15:20:31;;;;;;;15.57;11.97;;;10.50;99.90;;;;;;8232440;28;20196;-70
2022/04/24 15:24:32;;;;;;;21.47;14.57;;;10.40;1.00;;;;;;8232706;28;20201;-70
2022/04/24 15:28:34;;;;;;;17.83;12.40;;;10.30;66.40;;;;;;8233711;28;20217;-70
2022/04/24 15:32:37;;;;;;;19.43;14.30;;;10.20;1.00;;;;;;8216356;28;20181;-71
2022/04/24 15:36:37;;;;;;;34.87;21.47;;;10.10;1.00;;;;;;8217796;28;20188;-69
2022/04/24 15:40:39;;;;;;;15.83;12.33;;;10.00;99.90;;;;;;8219978;28;20204;-70
2022/04/24 15:48:59;;;;;;;36.03;21.17;;;9.80;99.90;;;;;;8210875;28;20239;-70
2022/04/24 15:53:00;;;;;;;26.53;16.33;;;9.70;99.90;;;;;;8214997;28;20196;-71
2022/04/24 15:57:01;;;;;;;14.60;9.53;;;9.80;1.00;;;;;;8218136;28;20195;-70
2022/04/24 16:01:03;;;;;;;11.47;8.43;;;9.70;1.00;;;;;;8215889;28;20311;-70
2022/04/24 16:05:04;;;;;;;18.33;14.83;;;9.70;1.00;;;;;;8216067;28;20212;-70
2022/04/24 16:09:05;;;;;;;11.90;9.00;;;9.60;99.90;;;;;;8227336;28;20220;-70
2022/04/24 16:13:06;;;;;;;9.73;8.33;;;9.60;99.90;;;;;;8217453;28;20185;-70
2022/04/24 16:17:07;;;;;;;39.33;19.57;;;9.60;99.90;;;;;;8230761;28;20199;-71
2022/04/24 16:21:08;;;;;;;56.90;26.30;;;9.60;99.90;;;;;;8216931;28;20192;-70
2022/04/24 16:25:09;;;;;;;53.87;22.40;;;9.50;99.90;;;;;;8230037;28;20200;-71
2022/04/24 16:29:55;;;;;;;47.50;21.27;;;9.50;99.90;;;;;;8227292;28;20275;-71
2022/04/24 16:33:31;;;;;;;49.13;26.40;;;9.60;86.80;;;;;;8216206;28;20220;-69
2022/04/24 16:37:33;;;;;;;117.17;58.00;;;9.60;80.40;;;;;;8214200;28;20200;-69
2022/04/24 16:41:34;;;;;;;153.60;67.07;;;9.60;94.70;;;;;;8214894;28;20251;-70
2022/04/24 16:45:35;;;;;;;133.80;67.20;;;9.40;99.90;;;;;;8200625;28;20196;-70
2022/04/24 16:49:50;;;;;;;119.80;57.00;;;9.30;99.90;;;;;;8232933;28;20304;-69
2022/04/24 17:02:30;;;;;;;52.03;32.30;;;9.10;99.90;;;;;;8223978;28;20271;-69
2022/04/24 17:06:34;;;;;;;59.70;38.17;;;9.00;99.90;;;;;;8229950;28;20192;-71
2022/04/24 17:10:35;;;;;;;45.47;29.60;;;8.90;99.90;;;;;;8231042;28;20216;-70
2022/04/24 17:14:41;;;;;;;43.67;27.47;;;8.90;99.90;;;;;;8220131;28;20197;-69
2022/04/24 17:18:42;;;;;;;50.73;31.70;;;8.90;99.90;;;;;;8235457;28;20192;-70
2022/04/24 17:22:44;;;;;;;53.93;32.87;;;8.80;99.90;;;;;;8235695;28;20256;-72
2022/04/24 17:26:46;;;;;;;86.27;42.50;;;8.80;99.90;;;;;;8231920;28;20373;-70
2022/04/24 17:30:47;;;;;;;62.80;36.57;;;8.70;99.90;;;;;;8229261;28;20303;-72
2022/04/24 17:34:54;;;;;;;54.27;30.23;;;8.70;99.90;;;;;;8232961;28;20461;-73
2022/04/24 17:38:55;;;;;;;50.90;30.07;;;8.70;99.90;;;;;;8232778;28;20304;-73
2022/04/24 17:42:56;;;;;;;41.03;26.03;;;8.60;99.90;;;;;;8218208;28;20199;-73
2022/04/24 17:46:57;;;;;;;23.30;17.17;;;8.60;99.90;;;;;;8230245;28;20303;-72
2022/04/24 17:50:58;;;;;;;18.90;14.17;;;8.60;99.90;;;;;;8219542;28;20225;-73
2022/04/24 17:54:59;;;;;;;20.73;14.17;;;8.50;99.90;;;;;;8229446;28;20303;-72
2022/04/24 17:59:01;;;;;;;35.80;23.00;;;8.50;99.90;;;;;;8216215;28;20192;-72
2022/04/24 18:03:03;;;;;;;20.43;15.13;;;8.50;99.90;;;;;;8216800;28;20192;-72
2022/04/24 18:07:04;;;;;;;25.30;17.40;;;8.40;99.90;;;;;;8215266;28;20193;-73
2022/04/24 18:11:11;;;;;;;21.87;16.03;;;8.40;99.90;;;;;;8213363;28;20220;-71
2022/04/24 18:15:12;;;;;;;25.03;18.00;;;8.40;99.90;;;;;;8230078;28;20200;-71
2022/04/24 18:19:13;;;;;;;35.70;20.43;;;8.40;99.90;;;;;;8234242;28;20197;-72
2022/04/24 18:23:14;;;;;;;28.93;20.00;;;8.40;99.90;;;;;;8216253;28;20200;-71
2022/04/24 18:27:15;;;;;;;36.60;25.13;;;8.40;99.90;;;;;;8231069;28;20231;-71
2022/04/24 18:31:16;;;;;;;42.10;28.67;;;8.40;99.90;;;;;;8216189;28;20212;-70
2022/04/24 18:35:17;;;;;;;40.67;27.73;;;8.50;99.90;;;;;;8230784;28;20303;-71
2022/04/24 18:39:18;;;;;;;37.17;27.23;;;8.50;99.90;;;;;;8229569;28;20215;-69
2022/04/24 18:43:19;;;;;;;31.83;22.67;;;8.50;99.90;;;;;;8209483;28;20259;-66
2022/04/24 18:47:22;;;;;;;18.73;14.77;;;8.60;99.90;;;;;;8229616;28;20188;-68
2022/04/24 18:51:23;;;;;;;24.97;18.63;;;8.60;99.90;;;;;;8229090;28;20212;-70
2022/04/24 18:55:23;;;;;;;29.63;18.70;;;8.60;99.90;;;;;;8229735;28;20192;-71
2022/04/24 18:59:24;;;;;;;20.87;14.30;;;8.60;99.90;;;;;;8215173;28;20227;-70
2022/04/24 19:03:25;;;;;;;31.27;20.80;;;8.50;99.90;;;;;;8214426;28;20200;-69
2022/04/24 19:07:38;;;;;;;25.00;17.90;;;8.60;99.90;;;;;;8229566;28;20251;-66
2022/04/24 19:11:39;;;;;;;17.40;13.43;;;8.60;99.90;;;;;;8228872;28;20244;-67
2022/04/24 19:15:40;;;;;;;21.50;15.53;;;8.50;99.90;;;;;;8214999;28;20219;-69
2022/04/24 19:19:41;;;;;;;13.93;10.83;;;8.50;99.90;;;;;;8228868;28;20208;-67
2022/04/24 19:23:43;;;;;;;13.20;10.17;;;8.50;99.90;;;;;;8214986;28;20193;-65
2022/04/24 19:27:46;;;;;;;20.67;16.30;;;8.50;99.90;;;;;;8215459;28;20192;-66
2022/04/24 19:31:47;;;;;;;16.50;12.67;;;8.50;99.90;;;;;;8215527;28;20216;-66
2022/04/24 19:35:48;;;;;;;24.67;18.70;;;8.50;99.90;;;;;;8229461;28;20295;-64
2022/04/24 19:39:49;;;;;;;17.97;14.57;;;8.50;99.90;;;;;;8215200;28;20287;-66
2022/04/24 19:43:50;;;;;;;19.90;14.20;;;8.40;99.90;;;;;;8221484;28;20198;-65
2022/04/24 19:52:10;;;;;;;17.27;12.87;;;8.40;99.90;;;;;;8214598;28;20231;-69
2022/04/24 19:56:12;;;;;;;15.60;11.70;;;8.40;99.90;;;;;;8209467;28;20189;-67
2022/04/24 20:00:15;;;;;;;14.97;11.27;;;8.40;99.90;;;;;;8214709;28;20208;-68
2022/04/24 20:04:18;;;;;;;15.87;11.40;;;8.30;99.90;;;;;;8211664;28;20270;-68
2022/04/24 20:08:23;;;;;;;13.07;9.73;;;8.20;99.90;;;;;;8229043;28;20226;-68
2022/04/24 20:12:26;;;;;;;14.10;9.80;;;8.30;99.90;;;;;;8215087;28;20181;-67
2022/04/24 20:16:27;;;;;;;14.40;10.13;;;8.30;99.90;;;;;;8228649;28;20185;-67
2022/04/24 20:20:28;;;;;;;10.47;8.50;;;8.20;99.90;;;;;;8214939;28;20226;-67
2022/04/24 20:24:28;;;;;;;8.27;6.60;;;8.20;99.90;;;;;;8213495;28;20197;-71
2022/04/24 20:28:29;;;;;;;12.73;9.43;;;8.20;99.90;;;;;;8236159;28;20216;-66
2022/04/24 20:32:30;;;;;;;14.80;11.30;;;8.20;99.90;;;;;;8236394;28;20270;-66
2022/04/24 20:36:31;;;;;;;11.43;7.80;;;8.20;99.90;;;;;;8236452;28;20188;-67
2022/04/24 20:40:32;;;;;;;12.47;9.30;;;8.20;99.90;;;;;;8221610;28;20216;-69
2022/04/24 20:44:33;;;;;;;11.63;8.43;;;8.20;99.90;;;;;;8216649;28;20192;-67
2022/04/24 20:48:34;;;;;;;9.53;7.50;;;8.10;99.90;;;;;;8218501;28;20234;-65
2022/04/24 20:52:36;;;;;;;11.47;8.97;;;8.20;99.90;;;;;;8220246;28;20196;-66
2022/04/24 20:56:37;;;;;;;10.90;7.80;;;8.20;99.90;;;;;;8233056;28;20196;-66
2022/04/24 21:00:39;;;;;;;11.40;8.33;;;8.20;99.90;;;;;;8235736;28;20191;-66
2022/04/24 21:04:42;;;;;;;10.13;7.70;;;8.30;99.90;;;;;;8219736;28;20192;-66
2022/04/24 21:08:43;;;;;;;9.63;7.60;;;8.30;99.90;;;;;;8234746;28;20209;-66
2022/04/24 21:12:44;;;;;;;11.20;8.20;;;8.30;99.90;;;;;;8233563;28;20196;-66
2022/04/24 21:16:46;;;;;;;12.60;8.53;;;8.30;99.90;;;;;;8217463;28;20187;-65
2022/04/24 21:20:46;;;;;;;9.43;7.53;;;8.30;99.90;;;;;;8217489;28;20192;-66